Time;durP1;ratioP1;P1;durP2;ratioP2;P2;SDS_P1;SDS_P2;PMS_P1;PMS_P2;Temp;Humidity;BMP_temperature;BMP_pressure;BME280_temperature;BME280_humidity;BME280_pressure;Samples;Min_cycle;Max_cycle;Signal;HPM_P1;HPM_P2
2022/01/18 00:01:29;;;;;;;9.50;2.67;;;;;6.20;103037.00;;;;5068219;28;20243;-70
2022/01/18 00:04:16;;;;;;;7.87;3.27;;;;;6.10;103037.00;;;;5068629;28;20727;-71
2022/01/18 00:07:02;;;;;;;13.17;2.80;;;;;6.10;103039.00;;;;5068073;28;20595;-70
2022/01/18 00:09:49;;;;;;;12.00;3.00;;;;;6.00;103040.00;;;;5062532;28;20717;-70
2022/01/18 00:12:56;;;;;;;16.07;3.50;;;;;6.10;103047.00;;;;5067945;28;20724;-70
2022/01/18 00:15:54;;;;;;;15.03;3.00;;;;;6.20;103062.00;;;;5081936;28;20239;-70
2022/01/18 00:18:41;;;;;;;13.50;3.70;;;;;6.30;103054.00;;;;5068254;28;20312;-72
2022/01/18 00:21:34;;;;;;;9.33;2.97;;;;;6.30;103059.00;;;;5054260;28;20374;-72
2022/01/18 00:24:21;;;;;;;7.90;2.70;;;;;6.30;103059.00;;;;5061984;28;20244;-71
2022/01/18 00:27:11;;;;;;;15.80;3.20;;;;;6.30;103070.00;;;;5071418;28;20231;-69
2022/01/18 00:30:11;;;;;;;17.03;3.37;;;;;6.40;103065.00;;;;5053749;28;20220;-71
2022/01/18 00:33:11;;;;;;;13.50;2.60;;;;;6.30;103083.00;;;;5057611;28;20225;-70
2022/01/18 00:36:01;;;;;;;17.23;3.33;;;;;6.30;103069.00;;;;5053558;28;20220;-69
2022/01/18 00:38:48;;;;;;;19.43;3.10;;;;;6.40;103082.00;;;;5053430;28;20780;-70
2022/01/18 00:41:35;;;;;;;12.40;3.30;;;;;6.40;103072.00;;;;5058843;28;20267;-70
2022/01/18 00:44:21;;;;;;;15.50;3.40;;;;;6.40;103090.00;;;;5053119;28;20306;-69
2022/01/18 00:47:09;;;;;;;12.67;3.03;;;;;6.50;103082.00;;;;5064723;28;20247;-69
2022/01/18 00:50:00;;;;;;;10.93;3.00;;;;;6.40;103082.00;;;;5076931;28;20228;-70
2022/01/18 00:52:51;;;;;;;11.97;3.17;;;;;6.40;103074.00;;;;5061921;28;20236;-71
2022/01/18 00:55:48;;;;;;;17.27;3.97;;;;;6.60;103087.00;;;;5067190;28;20232;-70
2022/01/18 00:58:35;;;;;;;13.97;3.60;;;;;6.60;103097.00;;;;5067677;28;20248;-72
2022/01/18 01:01:23;;;;;;;11.07;3.47;;;;;6.60;103091.00;;;;5057128;28;20232;-72
2022/01/18 01:04:12;;;;;;;18.07;3.67;;;;;6.50;103085.00;;;;5067962;28;20694;-71
2022/01/18 01:06:58;;;;;;;11.47;3.03;;;;;6.50;103096.00;;;;5065800;28;20276;-70
2022/01/18 01:09:44;;;;;;;16.37;3.40;;;;;6.50;103085.00;;;;5061488;28;20227;-70
2022/01/18 01:12:31;;;;;;;12.17;3.40;;;;;6.50;103099.00;;;;5065456;28;20231;-70
2022/01/18 01:15:20;;;;;;;15.50;2.60;;;;;6.50;103094.00;;;;5065517;28;20235;-70
2022/01/18 01:18:19;;;;;;;13.33;3.07;;;;;6.50;103095.00;;;;5066644;28;20240;-70
2022/01/18 01:33:55;;;;;;;11.13;3.00;;;;;6.50;103085.00;;;;5064741;28;20350;-70
2022/01/18 01:37:12;;;;;;;10.47;3.00;;;;;6.60;103091.00;;;;5069270;28;20915;-69
2022/01/18 01:43:17;;;;;;;10.37;3.17;;;;;6.60;103094.00;;;;5064555;28;20600;-70
2022/01/18 01:46:04;;;;;;;12.73;2.83;;;;;6.60;103093.00;;;;5061370;28;20228;-73
2022/01/18 01:48:53;;;;;;;11.33;2.97;;;;;6.60;103105.00;;;;5061764;28;20305;-69
2022/01/18 01:51:41;;;;;;;13.77;2.83;;;;;6.60;103097.00;;;;5065985;28;20943;-70
2022/01/18 01:54:27;;;;;;;12.90;3.20;;;;;6.50;103090.00;;;;5066636;28;20228;-70
2022/01/18 01:57:14;;;;;;;16.03;3.20;;;;;6.50;103094.00;;;;5062763;28;20343;-70
2022/01/18 02:00:04;;;;;;;11.37;3.40;;;;;6.60;103085.00;;;;5051078;28;20224;-69
2022/01/18 02:02:51;;;;;;;8.87;3.00;;;;;6.60;103096.00;;;;5057088;28;20271;-70
2022/01/18 02:05:37;;;;;;;13.90;2.87;;;;;6.60;103102.00;;;;5057757;28;20248;-71
2022/01/18 02:08:25;;;;;;;15.03;2.83;;;;;6.60;103104.00;;;;5057136;28;20291;-69
2022/01/18 02:11:12;;;;;;;9.97;3.07;;;;;6.50;103093.00;;;;5054523;28;20255;-70
2022/01/18 02:13:58;;;;;;;9.13;3.00;;;;;6.60;103100.00;;;;5053274;28;20364;-70
2022/01/18 02:22:56;;;;;;;14.77;2.90;;;;;6.60;103061.00;;;;5050160;28;20255;-72
2022/01/18 02:25:42;;;;;;;8.73;2.70;;;;;6.60;103083.00;;;;5066256;28;20298;-70
2022/01/18 02:28:28;;;;;;;14.43;3.27;;;;;6.60;103084.00;;;;5066338;28;20355;-70
2022/01/18 02:31:15;;;;;;;10.23;2.77;;;;;6.50;103079.00;;;;5057777;28;20243;-70
2022/01/18 02:34:02;;;;;;;9.17;2.73;;;;;6.60;103079.00;;;;5060983;28;20228;-69
2022/01/18 02:36:48;;;;;;;11.93;3.00;;;;;6.50;103078.00;;;;5058925;28;20252;-70
2022/01/18 02:39:36;;;;;;;8.80;2.90;;;;;6.50;103071.00;;;;5065128;28;20285;-70
2022/01/18 02:42:29;;;;;;;10.20;2.67;;;;;6.50;103075.00;;;;5065502;28;20232;-71
2022/01/18 02:45:15;;;;;;;14.60;2.77;;;;;6.50;103082.00;;;;5060995;28;20313;-70
2022/01/18 02:48:01;;;;;;;13.60;3.27;;;;;6.60;103087.00;;;;5062078;28;20232;-70
2022/01/18 02:50:48;;;;;;;16.97;3.17;;;;;6.50;103074.00;;;;5058087;28;20231;-69
2022/01/18 02:53:52;;;;;;;19.90;2.97;;;;;6.50;103091.00;;;;5064244;28;20241;-69
2022/01/18 02:56:43;;;;;;;16.73;2.80;;;;;6.50;103090.00;;;;5065517;28;20228;-69
2022/01/18 02:59:34;;;;;;;15.37;2.87;;;;;6.60;103094.00;;;;5056802;28;20723;-70
2022/01/18 03:05:26;;;;;;;10.83;2.33;;;;;6.60;103094.00;;;;5059830;28;20322;-71
2022/01/18 03:08:15;;;;;;;20.77;3.43;;;;;6.60;103088.00;;;;5065442;28;20298;-68
2022/01/18 03:11:03;;;;;;;20.97;3.63;;;;;6.60;103088.00;;;;5063812;28;20235;-70
2022/01/18 03:13:51;;;;;;;14.80;3.13;;;;;6.50;103081.00;;;;5060183;28;20243;-70
2022/01/18 03:16:37;;;;;;;13.87;3.17;;;;;6.50;103083.00;;;;5064697;28;20231;-69
2022/01/18 03:19:24;;;;;;;9.20;2.50;;;;;6.50;103089.00;;;;5062035;28;20235;-70
2022/01/18 03:22:10;;;;;;;6.60;2.40;;;;;6.50;103086.00;;;;5064944;28;20293;-70
2022/01/18 03:25:01;;;;;;;14.43;3.03;;;;;6.50;103082.00;;;;5058942;28;20712;-70
2022/01/18 03:28:06;;;;;;;15.87;2.97;;;;;6.60;103087.00;;;;5065484;28;20232;-71
2022/01/18 03:30:58;;;;;;;15.17;3.17;;;;;6.50;103090.00;;;;5064714;28;20342;-69
2022/01/18 03:33:44;;;;;;;18.30;3.50;;;;;6.60;103090.00;;;;5060020;28;20232;-72
2022/01/18 03:36:32;;;;;;;11.20;3.13;;;;;6.60;103093.00;;;;5065220;28;20231;-71
2022/01/18 03:39:19;;;;;;;12.43;2.87;;;;;6.50;103097.00;;;;5064803;28;20602;-70
2022/01/18 03:42:33;;;;;;;18.20;3.37;;;;;6.60;103096.00;;;;5064762;28;20232;-66
2022/01/18 03:45:25;;;;;;;20.47;3.33;;;;;6.60;103099.00;;;;5059707;28;20248;-69
2022/01/18 03:48:23;;;;;;;9.17;2.50;;;;;6.50;103103.00;;;;5065399;28;20326;-70
2022/01/18 03:51:10;;;;;;;21.30;3.57;;;;;6.60;103115.00;;;;5060520;28;20236;-70
2022/01/18 03:53:56;;;;;;;17.63;3.47;;;;;6.50;103112.00;;;;5063330;28;20302;-70
2022/01/18 03:56:42;;;;;;;15.33;3.03;;;;;6.50;103108.00;;;;5064887;28;20718;-69
2022/01/18 03:59:29;;;;;;;19.10;3.20;;;;;6.50;103114.00;;;;5057726;28;20243;-70
2022/01/18 04:02:16;;;;;;;14.37;4.23;;;;;6.60;103123.00;;;;5063037;28;20255;-69
2022/01/18 04:05:04;;;;;;;22.73;4.07;;;;;6.50;103108.00;;;;5063188;28;20243;-69
2022/01/18 04:07:50;;;;;;;17.63;3.50;;;;;6.50;103128.00;;;;5064088;28;20258;-71
2022/01/18 04:10:37;;;;;;;22.23;4.63;;;;;6.60;103130.00;;;;5064314;28;20232;-71
2022/01/18 04:13:23;;;;;;;20.43;4.40;;;;;6.60;103127.00;;;;5061671;28;20263;-71
2022/01/18 04:16:09;;;;;;;19.03;3.70;;;;;6.60;103122.00;;;;5064963;28;21296;-70
2022/01/18 04:19:09;;;;;;;19.90;4.03;;;;;6.60;103122.00;;;;5063337;28;20381;-70
2022/01/18 04:28:19;;;;;;;22.73;3.83;;;;;6.60;103139.00;;;;5063452;28;20234;-70
2022/01/18 04:31:07;;;;;;;12.83;3.67;;;;;6.50;103136.00;;;;5062439;28;20739;-70
2022/01/18 04:33:53;;;;;;;17.10;3.53;;;;;6.50;103129.00;;;;5063743;28;20727;-71
2022/01/18 04:36:39;;;;;;;14.23;3.93;;;;;6.60;103135.00;;;;5068326;28;20451;-72
2022/01/18 04:39:28;;;;;;;16.27;3.70;;;;;6.50;103120.00;;;;5067923;28;20240;-71
2022/01/18 04:42:18;;;;;;;13.00;3.87;;;;;6.60;103125.00;;;;5067653;28;20231;-71
2022/01/18 04:51:07;;;;;;;13.00;3.50;;;;;6.60;103114.00;;;;5089682;28;20293;-75
2022/01/18 04:53:57;;;;;;;18.37;3.77;;;;;6.60;103110.00;;;;5087979;28;20219;-74
2022/01/18 04:59:49;;;;;;;11.77;3.83;;;;;6.60;103116.00;;;;5090013;28;20471;-67
2022/01/18 05:02:36;;;;;;;17.77;4.33;;;;;6.60;103124.00;;;;5097088;28;20291;-73
2022/01/18 05:05:25;;;;;;;14.73;4.10;;;;;6.60;103117.00;;;;5097194;28;20277;-69
2022/01/18 05:08:13;;;;;;;12.17;3.63;;;;;6.60;103095.00;;;;5097893;28;20235;-74
2022/01/18 05:11:00;;;;;;;13.80;3.80;;;;;6.60;103129.00;;;;5095004;28;20251;-75
2022/01/18 05:14:09;;;;;;;11.37;3.37;;;;;6.60;103131.00;;;;5086229;28;20293;-74
2022/01/18 05:17:09;;;;;;;15.70;3.83;;;;;6.70;103136.00;;;;5086599;28;20215;-74
2022/01/18 05:20:13;;;;;;;24.43;3.67;;;;;6.60;103132.00;;;;5074041;28;20469;-69
2022/01/18 05:23:01;;;;;;;11.00;3.57;;;;;6.50;103129.00;;;;5059788;28;20224;-69
2022/01/18 05:25:49;;;;;;;18.50;4.07;;;;;6.50;103127.00;;;;5068417;28;20266;-69
2022/01/18 05:28:35;;;;;;;11.33;3.70;;;;;6.50;103133.00;;;;5066979;28;20726;-69
2022/01/18 05:31:23;;;;;;;12.90;3.90;;;;;6.70;103137.00;;;;5073240;28;20242;-70
2022/01/18 05:34:10;;;;;;;13.17;4.23;;;;;6.50;103137.00;;;;5066896;28;20377;-70
2022/01/18 05:36:56;;;;;;;14.90;3.83;;;;;6.50;103130.00;;;;5060887;28;20231;-70
2022/01/18 05:39:42;;;;;;;16.17;4.40;;;;;6.50;103122.00;;;;5067286;28;20726;-70
2022/01/18 05:42:28;;;;;;;14.30;4.00;;;;;6.50;103125.00;;;;5067500;28;20235;-70
2022/01/18 05:45:15;;;;;;;13.27;3.70;;;;;6.50;103132.00;;;;5071013;28;20235;-70
2022/01/18 05:48:02;;;;;;;23.47;4.57;;;;;6.50;103126.00;;;;5066661;28;20663;-70
2022/01/18 05:50:48;;;;;;;18.07;4.17;;;;;6.50;103128.00;;;;5061352;28;20227;-71
2022/01/18 05:53:36;;;;;;;20.93;4.77;;;;;6.60;103134.00;;;;5066975;28;20231;-70
2022/01/18 05:56:23;;;;;;;14.93;4.43;;;;;6.60;103135.00;;;;5066521;28;20621;-69
2022/01/18 05:59:12;;;;;;;15.63;4.70;;;;;6.60;103142.00;;;;5066786;28;20362;-71
2022/01/18 06:02:02;;;;;;;20.57;4.83;;;;;6.50;103139.00;;;;5060708;28;20231;-71
2022/01/18 06:07:54;;;;;;;11.90;4.37;;;;;6.50;103145.00;;;;5066390;28;20235;-71
2022/01/18 06:10:40;;;;;;;16.93;4.00;;;;;6.50;103147.00;;;;5065813;28;20354;-68
2022/01/18 06:13:28;;;;;;;10.80;4.40;;;;;6.50;103160.00;;;;5066428;28;20231;-72
2022/01/18 06:16:14;;;;;;;12.87;4.13;;;;;6.50;103157.00;;;;5066414;28;20367;-70
2022/01/18 06:19:01;;;;;;;21.13;5.37;;;;;6.60;103160.00;;;;5061254;28;20228;-72
2022/01/18 06:21:49;;;;;;;14.30;4.93;;;;;6.50;103154.00;;;;5058617;28;20247;-73
2022/01/18 06:24:35;;;;;;;18.77;4.83;;;;;6.60;103155.00;;;;5057486;28;20317;-70
2022/01/18 06:27:25;;;;;;;17.40;5.07;;;;;6.50;103165.00;;;;5078819;28;20359;-71
2022/01/18 06:30:11;;;;;;;12.20;4.10;;;;;6.50;103147.00;;;;5058270;28;20260;-73
2022/01/18 06:32:58;;;;;;;14.70;4.50;;;;;6.50;103148.00;;;;5066226;28;20626;-71
2022/01/18 06:35:44;;;;;;;17.70;4.87;;;;;6.50;103153.00;;;;5066055;28;20275;-70
2022/01/18 06:38:32;;;;;;;13.30;5.00;;;;;6.50;103142.00;;;;5065462;28;20231;-67
2022/01/18 06:41:18;;;;;;;23.33;5.03;;;;;6.40;103156.00;;;;5062491;28;20235;-71
2022/01/18 06:44:06;;;;;;;14.67;5.13;;;;;6.40;103159.00;;;;5055807;28;20365;-71
2022/01/18 06:46:52;;;;;;;16.20;4.93;;;;;6.40;103156.00;;;;5058465;28;20267;-67
2022/01/18 06:49:38;;;;;;;20.73;5.07;;;;;6.30;103158.00;;;;5065439;28;20280;-70
2022/01/18 06:52:24;;;;;;;17.40;4.33;;;;;6.20;103162.00;;;;5068400;28;20271;-70
2022/01/18 06:55:13;;;;;;;13.73;4.80;;;;;6.20;103171.00;;;;5061424;28;20236;-70
2022/01/18 06:58:01;;;;;;;11.63;5.20;;;;;6.10;103174.00;;;;5058015;28;20350;-71
2022/01/18 07:00:47;;;;;;;22.47;5.43;;;;;6.00;103181.00;;;;5056827;28;20279;-70
2022/01/18 07:03:34;;;;;;;17.30;5.03;;;;;6.00;103179.00;;;;5064496;28;20722;-71
2022/01/18 07:06:20;;;;;;;15.50;5.20;;;;;6.00;103175.00;;;;5064882;28;20259;-72
2022/01/18 07:09:06;;;;;;;15.70;4.93;;;;;6.00;103169.00;;;;5065458;28;20590;-70
2022/01/18 07:11:56;;;;;;;15.80;4.87;;;;;6.00;103183.00;;;;5058461;28;20238;-70
2022/01/18 07:14:42;;;;;;;18.43;5.50;;;;;6.00;103179.00;;;;5066061;28;20366;-70
2022/01/18 07:17:29;;;;;;;10.37;4.53;;;;;6.00;103188.00;;;;5065614;28;20282;-71
2022/01/18 07:20:15;;;;;;;15.03;4.70;;;;;5.90;103182.00;;;;5065655;28;20239;-70
2022/01/18 07:23:02;;;;;;;14.43;4.70;;;;;6.00;103183.00;;;;5064800;28;20278;-71
2022/01/18 07:25:49;;;;;;;11.57;4.93;;;;;5.90;103180.00;;;;5065058;28;20892;-72
2022/01/18 07:28:36;;;;;;;16.63;4.50;;;;;5.90;103194.00;;;;5065081;28;20239;-73
2022/01/18 07:31:22;;;;;;;13.47;4.77;;;;;5.90;103187.00;;;;5064817;28;20286;-70
2022/01/18 07:34:09;;;;;;;11.07;4.57;;;;;5.80;103189.00;;;;5063622;28;20224;-70
2022/01/18 07:36:56;;;;;;;16.93;4.70;;;;;5.80;103196.00;;;;5053540;28;20232;-69
2022/01/18 07:39:42;;;;;;;12.63;4.63;;;;;5.80;103183.00;;;;5065441;28;20269;-71
2022/01/18 07:42:28;;;;;;;14.77;4.97;;;;;5.80;103189.00;;;;5064477;28;20236;-70
2022/01/18 07:45:16;;;;;;;10.53;4.33;;;;;5.80;103196.00;;;;5065375;28;20277;-70
2022/01/18 07:48:02;;;;;;;11.43;4.73;;;;;5.80;103204.00;;;;5057207;28;20330;-71
2022/01/18 07:50:51;;;;;;;14.57;4.60;;;;;5.90;103205.00;;;;5053870;28;20232;-69
2022/01/18 07:53:37;;;;;;;14.13;4.40;;;;;5.90;103205.00;;;;5061594;28;20232;-69
2022/01/18 07:56:23;;;;;;;14.30;4.47;;;;;5.80;103207.00;;;;5059956;28;20232;-71
2022/01/18 07:59:10;;;;;;;12.93;5.17;;;;;6.00;103200.00;;;;5068591;28;20220;-70
2022/01/18 08:01:57;;;;;;;13.83;4.87;;;;;6.00;103204.00;;;;5068553;28;20236;-70
2022/01/18 08:04:43;;;;;;;14.80;4.50;;;;;6.00;103208.00;;;;5065961;28;20668;-71
2022/01/18 08:07:30;;;;;;;13.80;4.63;;;;;6.00;103212.00;;;;5062260;28;20734;-70
2022/01/18 08:10:17;;;;;;;10.33;4.93;;;;;6.00;103218.00;;;;5057055;28;20375;-70
2022/01/18 08:13:04;;;;;;;10.43;4.23;;;;;6.10;103217.00;;;;5055473;28;20220;-71
2022/01/18 08:15:58;;;;;;;12.70;4.90;;;;;6.10;103202.00;;;;5056988;28;20224;-69
2022/01/18 08:18:46;;;;;;;12.37;4.97;;;;;6.20;103196.00;;;;5055499;28;20271;-71
2022/01/18 08:21:32;;;;;;;14.07;5.20;;;;;6.20;103203.00;;;;5060243;28;20258;-72
2022/01/18 08:24:19;;;;;;;16.63;5.60;;;;;6.30;103208.00;;;;5067943;28;20310;-71
2022/01/18 08:27:06;;;;;;;14.63;5.80;;;;;6.30;103192.00;;;;5068129;28;20607;-69
2022/01/18 08:29:52;;;;;;;14.50;5.73;;;;;6.30;103199.00;;;;5062025;28;20305;-70
2022/01/18 08:32:39;;;;;;;14.10;5.27;;;;;6.30;103199.00;;;;5067775;28;20250;-71
2022/01/18 08:35:27;;;;;;;12.67;5.00;;;;;6.40;103213.00;;;;5067895;28;20231;-70
2022/01/18 08:38:12;;;;;;;13.20;4.87;;;;;6.40;103214.00;;;;5068445;28;20702;-70
2022/01/18 08:41:00;;;;;;;19.47;5.97;;;;;6.50;103206.00;;;;5065453;28;20248;-70
2022/01/18 08:43:46;;;;;;;17.03;6.13;;;;;6.60;103215.00;;;;5061271;28;20226;-69
2022/01/18 08:46:33;;;;;;;20.80;6.03;;;;;6.70;103222.00;;;;5063828;28;20350;-70
2022/01/18 08:49:20;;;;;;;24.70;6.17;;;;;6.80;103218.00;;;;5067761;28;20804;-71
2022/01/18 08:52:07;;;;;;;19.67;6.43;;;;;6.80;103204.00;;;;5063844;28;20245;-71
2022/01/18 08:54:53;;;;;;;24.30;6.73;;;;;6.80;103215.00;;;;5062068;28;20280;-70
2022/01/18 08:57:40;;;;;;;17.33;6.47;;;;;6.90;103210.00;;;;5067252;28;20223;-72
2022/01/18 09:00:27;;;;;;;21.20;6.63;;;;;6.90;103222.00;;;;5068609;28;20278;-72
2022/01/18 09:03:13;;;;;;;20.27;5.80;;;;;6.90;103226.00;;;;5068587;28;20246;-71
2022/01/18 09:06:00;;;;;;;19.50;5.87;;;;;6.90;103231.00;;;;5067028;28;20236;-70
2022/01/18 09:08:55;;;;;;;20.87;5.93;;;;;7.00;103234.00;;;;5061681;28;20278;-71
2022/01/18 09:11:41;;;;;;;23.60;7.43;;;;;7.10;103234.00;;;;5067165;28;20240;-71
2022/01/18 09:14:29;;;;;;;22.57;6.70;;;;;7.10;103236.00;;;;5062119;28;20313;-71
2022/01/18 09:17:15;;;;;;;19.70;6.60;;;;;7.10;103235.00;;;;5065686;28;20241;-70
2022/01/18 09:20:06;;;;;;;19.50;6.70;;;;;7.10;103244.00;;;;5051787;28;20224;-65
2022/01/18 09:22:53;;;;;;;19.40;6.30;;;;;7.20;103237.00;;;;5051610;28;20237;-71
2022/01/18 09:25:42;;;;;;;19.67;7.37;;;;;7.20;103245.00;;;;5062841;28;20223;-70
2022/01/18 09:28:28;;;;;;;18.80;6.47;;;;;7.20;103245.00;;;;5074962;28;20269;-73
2022/01/18 09:31:14;;;;;;;22.87;6.70;;;;;7.20;103246.00;;;;5062172;28;20235;-71
2022/01/18 09:34:01;;;;;;;20.13;7.00;;;;;7.20;103240.00;;;;5063533;28;24068;-70
2022/01/18 09:36:48;;;;;;;32.43;8.00;;;;;7.30;103242.00;;;;5032543;28;20231;-72
2022/01/18 09:39:34;;;;;;;26.40;7.33;;;;;7.30;103243.00;;;;5065315;28;20742;-71
2022/01/18 09:42:31;;;;;;;28.07;7.23;;;;;7.30;103245.00;;;;5065814;28;20809;-66
2022/01/18 09:45:18;;;;;;;27.43;6.73;;;;;7.30;103254.00;;;;5065999;28;20357;-70
2022/01/18 09:48:05;;;;;;;19.97;6.83;;;;;7.40;103259.00;;;;5060643;28;20243;-73
2022/01/18 09:50:52;;;;;;;21.27;6.60;;;;;7.40;103269.00;;;;5060949;28;20706;-72
2022/01/18 09:53:39;;;;;;;15.93;7.37;;;;;7.50;103261.00;;;;5074896;28;20350;-71
2022/01/18 09:56:25;;;;;;;26.10;7.43;;;;;7.40;103269.00;;;;5066056;28;20941;-71
2022/01/18 09:59:13;;;;;;;24.10;7.47;;;;;7.60;103263.00;;;;5066172;28;20359;-70
2022/01/18 10:02:01;;;;;;;23.07;8.33;;;;;7.60;103270.00;;;;5061060;28;20237;-70
2022/01/18 10:04:49;;;;;;;29.23;8.03;;;;;7.50;103265.00;;;;5065212;28;20786;-66
2022/01/18 10:07:36;;;;;;;27.63;7.57;;;;;7.60;103274.00;;;;5065857;28;20234;-70
2022/01/18 10:10:36;;;;;;;25.17;8.60;;;;;7.60;103266.00;;;;5063612;28;20930;-70
2022/01/18 10:13:23;;;;;;;25.70;7.57;;;;;7.50;103262.00;;;;5064654;28;20235;-70
2022/01/18 10:16:13;;;;;;;27.30;7.83;;;;;7.70;103262.00;;;;5066387;28;20734;-70
2022/01/18 10:19:03;;;;;;;25.93;7.33;;;;;7.70;103255.00;;;;5059885;28;20231;-70
2022/01/18 10:21:51;;;;;;;25.57;8.17;;;;;7.70;103255.00;;;;5062025;28;21258;-70
2022/01/18 10:24:37;;;;;;;27.30;7.40;;;;;8.00;103258.00;;;;5065088;28;20236;-70
2022/01/18 10:27:36;;;;;;;19.03;7.10;;;;;7.90;103263.00;;;;5065545;28;20363;-70
2022/01/18 10:30:33;;;;;;;23.07;7.43;;;;;8.00;103247.00;;;;5064615;28;20320;-67
2022/01/18 10:33:27;;;;;;;23.03;7.13;;;;;8.00;103246.00;;;;5059418;28;20447;-70
2022/01/18 10:36:16;;;;;;;16.97;6.97;;;;;7.90;103243.00;;;;5057908;28;20712;-71
2022/01/18 10:39:03;;;;;;;21.33;7.87;;;;;8.10;103242.00;;;;5066045;28;20286;-71
2022/01/18 10:42:16;;;;;;;23.80;7.97;;;;;8.00;103248.00;;;;5055147;28;20225;-70
2022/01/18 10:45:08;;;;;;;23.70;8.00;;;;;7.90;103234.00;;;;5054614;28;20270;-71
2022/01/18 10:47:59;;;;;;;23.07;7.67;;;;;8.00;103236.00;;;;5054804;28;20357;-71
2022/01/18 10:50:48;;;;;;;26.97;7.83;;;;;8.00;103235.00;;;;5079076;28;20227;-69
2022/01/18 10:53:34;;;;;;;27.77;8.13;;;;;8.00;103235.00;;;;5065267;28;20232;-71
2022/01/18 10:56:20;;;;;;;21.93;7.80;;;;;8.40;103232.00;;;;5064726;28;20765;-70
2022/01/18 10:59:08;;;;;;;22.17;8.00;;;;;8.40;103237.00;;;;5065043;28;20740;-71
2022/01/18 11:02:07;;;;;;;24.63;8.10;;;;;8.60;103220.00;;;;5059419;28;20355;-71
2022/01/18 11:04:55;;;;;;;22.83;8.07;;;;;8.70;103230.00;;;;5058264;28;20229;-71
2022/01/18 11:07:44;;;;;;;26.13;8.57;;;;;8.80;103221.00;;;;5065127;28;20302;-72
2022/01/18 11:10:33;;;;;;;22.97;7.03;;;;;9.00;103231.00;;;;5064490;28;20376;-72
2022/01/18 11:13:45;;;;;;;21.30;7.17;;;;;9.10;103228.00;;;;5058283;28;20230;-71
2022/01/18 11:16:36;;;;;;;23.80;6.63;;;;;9.00;103226.00;;;;5063182;28;20703;-70
2022/01/18 11:19:32;;;;;;;19.97;6.73;;;;;9.00;103226.00;;;;5065175;28;20292;-73
2022/01/18 11:22:19;;;;;;;18.40;6.37;;;;;9.00;103219.00;;;;5063599;28;20228;-73
2022/01/18 11:25:08;;;;;;;23.30;6.97;;;;;8.80;103216.00;;;;5060122;28;20232;-70
2022/01/18 11:27:57;;;;;;;15.93;5.77;;;;;8.80;103213.00;;;;5059944;28;20725;-72
2022/01/18 11:30:47;;;;;;;23.17;6.73;;;;;8.70;103206.00;;;;5061007;28;20287;-72
2022/01/18 11:33:36;;;;;;;20.13;6.33;;;;;8.70;103196.00;;;;5070860;28;20237;-72
2022/01/18 11:36:27;;;;;;;23.13;8.30;;;;;8.80;103209.00;;;;5066809;28;20233;-71
2022/01/18 11:39:17;;;;;;;21.97;8.20;;;;;9.00;103192.00;;;;5069111;28;20336;-73
2022/01/18 11:42:12;;;;;;;26.93;5.77;;;;;9.30;103193.00;;;;5069202;28;20233;-72
2022/01/18 11:44:59;;;;;;;24.23;5.47;;;;;9.50;103192.00;;;;5063705;28;20800;-71
2022/01/18 11:47:58;;;;;;;20.10;5.43;;;;;9.90;103175.00;;;;5067093;28;20229;-72
2022/01/18 11:50:49;;;;;;;19.57;5.37;;;;;10.00;103200.00;;;;5062706;28;20282;-75
2022/01/18 11:53:43;;;;;;;16.03;4.70;;;;;10.10;103185.00;;;;5069066;28;20758;-73
2022/01/18 11:56:34;;;;;;;16.10;4.93;;;;;10.30;103204.00;;;;5067402;28;20250;-72
2022/01/18 11:59:25;;;;;;;19.37;4.63;;;;;10.40;103191.00;;;;5055240;28;20236;-70
2022/01/18 12:02:13;;;;;;;13.77;4.20;;;;;10.40;103190.00;;;;5064292;28;20243;-73
2022/01/18 12:05:08;;;;;;;13.90;4.70;;;;;10.30;103195.00;;;;5068694;28;20394;-75
2022/01/18 12:08:01;;;;;;;16.77;5.47;;;;;10.10;103191.00;;;;5064932;28;20775;-71
2022/01/18 12:10:48;;;;;;;16.57;4.53;;;;;9.80;103197.00;;;;5065675;28;20231;-73
2022/01/18 12:13:47;;;;;;;17.87;4.83;;;;;9.50;103197.00;;;;5068192;28;20353;-74
2022/01/18 12:16:34;;;;;;;11.97;4.70;;;;;9.50;103194.00;;;;5064614;28;20215;-74
2022/01/18 12:19:45;;;;;;;20.37;5.00;;;;;9.50;103185.00;;;;5066890;28;20224;-73
2022/01/18 12:23:00;;;;;;;16.97;5.07;;;;;9.60;103180.00;;;;5067534;28;20240;-74
2022/01/18 12:25:55;;;;;;;15.53;5.20;;;;;9.40;103181.00;;;;5068512;28;20299;-74
2022/01/18 12:28:57;;;;;;;17.63;4.20;;;;;9.50;103174.00;;;;5068201;28;20351;-72
2022/01/18 12:32:17;;;;;;;13.53;4.17;;;;;9.20;103175.00;;;;5079426;28;20328;-72
2022/01/18 12:35:18;;;;;;;16.50;4.50;;;;;9.00;103160.00;;;;5074218;28;20222;-72
2022/01/18 12:38:10;;;;;;;16.07;4.37;;;;;9.10;103175.00;;;;5063494;28;20913;-74
2022/01/18 12:40:58;;;;;;;18.37;4.70;;;;;9.20;103170.00;;;;5066700;28;20806;-73
2022/01/18 12:47:04;;;;;;;18.87;4.17;;;;;9.00;103172.00;;;;5063544;28;20376;-73
2022/01/18 12:49:52;;;;;;;19.83;4.50;;;;;9.10;103167.00;;;;5062142;28;20260;-74
2022/01/18 12:52:46;;;;;;;13.63;3.90;;;;;9.10;103171.00;;;;5067636;28;20623;-73
2022/01/18 12:55:37;;;;;;;17.23;3.67;;;;;9.10;103163.00;;;;5067788;28;20269;-73
2022/01/18 12:58:26;;;;;;;13.40;3.93;;;;;9.20;103163.00;;;;5068227;28;20221;-74
2022/01/18 13:01:14;;;;;;;15.97;3.97;;;;;9.20;103154.00;;;;5054379;28;20226;-76
2022/01/18 13:04:02;;;;;;;13.53;3.63;;;;;9.20;103155.00;;;;5076541;28;20235;-72
2022/01/18 13:06:50;;;;;;;11.00;3.63;;;;;9.30;103156.00;;;;5059690;28;20228;-72
2022/01/18 13:09:54;;;;;;;18.13;4.57;;;;;9.30;103144.00;;;;5067117;28;20236;-73
2022/01/18 13:12:40;;;;;;;13.73;3.60;;;;;9.30;103148.00;;;;5067031;28;20234;-73
2022/01/18 13:15:40;;;;;;;15.70;3.93;;;;;9.20;103141.00;;;;5067849;28;20780;-74
2022/01/18 13:25:02;;;;;;;13.47;4.00;;;;;9.40;103143.00;;;;5057026;28;20938;-72
2022/01/18 13:27:51;;;;;;;14.60;3.80;;;;;9.30;103133.00;;;;5067134;28;20229;-71
2022/01/18 13:30:39;;;;;;;18.50;3.70;;;;;9.30;103137.00;;;;5069578;28;20240;-73
2022/01/18 13:33:25;;;;;;;13.03;3.30;;;;;9.40;103125.00;;;;5068016;28;20844;-72
2022/01/18 13:36:12;;;;;;;15.13;3.30;;;;;9.30;103126.00;;;;5062335;28;20291;-72
2022/01/18 13:39:21;;;;;;;14.93;3.80;;;;;9.40;103118.00;;;;5062687;28;20245;-71
2022/01/18 13:42:12;;;;;;;12.33;3.70;;;;;9.40;103125.00;;;;5061935;28;20237;-73
2022/01/18 13:45:17;;;;;;;14.20;3.30;;;;;9.40;103120.00;;;;5061285;28;20222;-71
2022/01/18 13:48:08;;;;;;;15.57;3.20;;;;;9.30;103120.00;;;;5061808;28;20231;-72
2022/01/18 13:51:09;;;;;;;13.53;3.40;;;;;9.50;103111.00;;;;5063768;28;20289;-71
2022/01/18 13:53:58;;;;;;;15.10;3.63;;;;;9.50;103118.00;;;;5054744;28;20231;-73
2022/01/18 13:56:48;;;;;;;13.07;2.90;;;;;9.50;103117.00;;;;5062526;28;20720;-72
2022/01/18 13:59:34;;;;;;;9.17;2.87;;;;;9.40;103106.00;;;;5065235;28;20227;-73
2022/01/18 14:02:23;;;;;;;9.53;3.27;;;;;9.30;103101.00;;;;5066183;28;20230;-73
2022/01/18 14:05:10;;;;;;;15.87;3.00;;;;;9.30;103103.00;;;;5062979;28;20261;-74
2022/01/18 14:08:11;;;;;;;13.77;3.00;;;;;9.20;103109.00;;;;5066403;28;20223;-73
2022/01/18 14:11:02;;;;;;;11.83;3.00;;;;;9.30;103105.00;;;;5062530;28;20678;-73
2022/01/18 14:13:51;;;;;;;10.30;3.00;;;;;9.30;103099.00;;;;5059020;28;20231;-74
2022/01/18 14:16:44;;;;;;;8.73;3.00;;;;;9.20;103100.00;;;;5064269;28;20299;-75
2022/01/18 14:19:33;;;;;;;10.97;2.60;;;;;9.20;103103.00;;;;5064505;28;20246;-74
2022/01/18 14:22:22;;;;;;;12.13;3.10;;;;;9.10;103093.00;;;;5061942;28;20373;-75
2022/01/18 14:25:09;;;;;;;12.23;2.30;;;;;9.30;103098.00;;;;5060506;28;20226;-74
2022/01/18 14:27:55;;;;;;;9.10;2.67;;;;;9.20;103095.00;;;;5057474;28;20735;-75
2022/01/18 14:30:44;;;;;;;10.40;2.90;;;;;9.20;103098.00;;;;5058447;28;20234;-73
2022/01/18 14:33:30;;;;;;;10.83;2.20;;;;;9.20;103097.00;;;;5057239;28;20274;-74
2022/01/18 14:36:16;;;;;;;6.37;2.40;;;;;9.30;103093.00;;;;5055336;28;20231;-74
2022/01/18 14:39:07;;;;;;;12.70;3.07;;;;;9.30;103093.00;;;;5061558;28;20236;-74
2022/01/18 14:42:01;;;;;;;13.13;3.20;;;;;9.30;103091.00;;;;5059912;28;20325;-74
2022/01/18 14:45:00;;;;;;;8.40;2.27;;;;;9.30;103094.00;;;;5052535;28;20250;-72
2022/01/18 14:47:48;;;;;;;13.10;2.33;;;;;9.20;103083.00;;;;5053659;28;20228;-71
2022/01/18 14:50:34;;;;;;;11.97;2.60;;;;;9.20;103073.00;;;;5059974;28;20323;-74
2022/01/18 14:53:21;;;;;;;6.67;2.47;;;;;9.20;103075.00;;;;5065741;28;20292;-73